Main page
METAR-TAF:

METAR-TAF

Airports :

Braunschweig Wolfsburg Airport

Braunschweig, Germany

latitude: 52-18N, longitude: 010-27E, elevation: 81 m

Current weather observation

The report was made 59 minutes ago, at 05:50 UTC
Wind 4 kt from the East
Temperature 13°C
Humidity 88%
Pressure 1023 hPa
Visibility 10 km or more
no clouds below 1500 m and no cumulonimbus

METAR: EDVE 200550Z 09004KT CAVOK 13/11 Q1023

Time: 08:49 (06:49 UTC)

Forecast

The report was made 1 hour and 49 minutes ago, at 05:00 UTC
Forecast valid from 20 at 06 UTC to 20 at 15 UTC
Wind 3 kt from variable directions
Visibility 10 km or more
no clouds below 1500 m and no cumulonimbus
Becoming
from 20 at 06 UTC to 20 at 08 UTC
Wind 7 kt from the East/Southeast

TAF: EDVE 200500Z 2006/2015 VRB03KT CAVOK BECMG 2006/2008 11007KT

Weather observations and forecasts of more than 4000 airports (METAR and TAF reports).

The available stations are represented by yellow and red dots on the map.

Hover mouse over dot to see the name of the station.

Then click to see weather observations and forecasts.

To change the map : click on the green buttons with a black cross to zoom in, on the green button with a dash to zoom out, or on the green arrows for adjacent maps.


METAR-TAF: